Main page
METAR-TAF:

METAR-TAF

Airports :

Dodge County Airport

Juneau, Wisconsin, United States

latitude: 43-25-36N, longitude: 088-42-12W, elevation: 935 ft

Current weather observation

The report was made 5 minutes ago, at 21:35 UTC
Wind 16 mph from the South
Temperature 46°F
Humidity 39%
Pressure 30.03 in. Hg
Visibility: 10 miles
Scattered clouds at a height of 4300 ft

METAR: KUNU 012135Z AUTO 19014KT 10SM SCT043 08/M05 A3003 RMK AO2 T00841046

Time: 15:40 (21:40 UTC)


TAF: missing

Weather observations and forecasts of more than 4000 airports (METAR and TAF reports).

The available stations are represented by yellow and red dots on the map.

Hover mouse over dot to see the name of the station.

Then click to see weather observations and forecasts.

To change the map : click on the green buttons with a black cross to zoom in, on the green button with a dash to zoom out, or on the green arrows for adjacent maps.


METAR-TAF: